createdAt,value
2022-11-22T00:01:43.568Z,2.10
2022-11-22T00:04:12.295Z,2.57
2022-11-22T00:06:41.498Z,1.70
2022-11-22T00:09:13.966Z,1.63
2022-11-22T00:11:42.584Z,1.70
2022-11-22T00:14:16.202Z,1.10
2022-11-22T00:16:48.021Z,1.23
2022-11-22T00:19:16.485Z,2.17
2022-11-22T00:21:46.806Z,2.43
2022-11-22T00:24:16.119Z,1.70
2022-11-22T00:26:45.162Z,1.50
2022-11-22T00:29:14.731Z,2.60
2022-11-22T00:31:45.693Z,3.50
2022-11-22T00:34:15.774Z,2.30
2022-11-22T00:36:44.905Z,1.97
2022-11-22T00:39:14.105Z,2.20
2022-11-22T00:41:42.479Z,2.00
2022-11-22T00:44:11.247Z,2.00
2022-11-22T00:46:39.959Z,3.10
2022-11-22T00:49:08.567Z,1.67
2022-11-22T00:51:38.195Z,1.83
2022-11-22T00:54:09.060Z,2.40
2022-11-22T00:56:37.453Z,2.07
2022-11-22T00:59:06.515Z,2.40
2022-11-22T01:01:35.278Z,2.10
2022-11-22T01:04:03.827Z,2.70
2022-11-22T01:06:34.167Z,2.67
2022-11-22T01:09:04.330Z,2.43
2022-11-22T01:11:33.027Z,2.43
2022-11-22T01:14:03.193Z,2.33
2022-11-22T01:16:32.954Z,2.60
2022-11-22T01:19:02.457Z,2.67
2022-11-22T01:21:31.332Z,2.80
2022-11-22T01:23:59.721Z,2.20
2022-11-22T01:26:32.353Z,2.80
2022-11-22T01:29:01.091Z,2.40
2022-11-22T01:31:30.394Z,2.03
2022-11-22T01:33:59.067Z,2.67
2022-11-22T01:36:27.996Z,1.87
2022-11-22T01:38:56.730Z,2.90
2022-11-22T01:41:26.523Z,2.53
2022-11-22T01:43:56.331Z,2.50
2022-11-22T01:46:36.866Z,2.67
2022-11-22T01:49:11.496Z,2.50
2022-11-22T01:51:42.222Z,2.60
2022-11-22T01:54:14.190Z,2.43
2022-11-22T01:56:48.253Z,3.10
2022-11-22T01:59:21.020Z,1.90
2022-11-22T02:01:50.441Z,2.10
2022-11-22T02:04:20.502Z,2.23
2022-11-22T02:06:53.769Z,2.80
2022-11-22T02:09:23.149Z,2.30
2022-11-22T02:11:55.479Z,2.77
2022-11-22T02:14:28.604Z,2.23
2022-11-22T02:17:00.602Z,2.20
2022-11-22T02:19:39.743Z,2.00
2022-11-22T02:22:19.168Z,2.10
2022-11-22T02:24:54.734Z,2.87
2022-11-22T02:27:25.579Z,2.80
2022-11-22T02:29:54.266Z,1.90
2022-11-22T02:32:22.753Z,2.00
2022-11-22T02:34:52.626Z,3.40
2022-11-22T02:37:25.574Z,3.83
2022-11-22T02:40:00.274Z,2.07
2022-11-22T02:42:32.953Z,2.57
2022-11-22T02:45:01.681Z,2.77
2022-11-22T02:47:30.384Z,1.77
2022-11-22T02:49:59.212Z,2.23
2022-11-22T02:52:30.815Z,2.13
2022-11-22T02:55:01.309Z,2.33
2022-11-22T02:57:32.682Z,2.20
2022-11-22T03:00:01.191Z,1.90
2022-11-22T03:02:29.822Z,1.87
2022-11-22T03:04:58.061Z,2.40
2022-11-22T03:07:27.245Z,2.57
2022-11-22T03:09:55.706Z,1.73
2022-11-22T03:12:24.459Z,1.80
2022-11-22T03:14:54.575Z,1.60
2022-11-22T03:17:23.123Z,1.70
2022-11-22T03:19:51.739Z,1.73
2022-11-22T03:22:20.946Z,3.07
2022-11-22T03:24:50.939Z,1.80
2022-11-22T03:27:19.330Z,2.10
2022-11-22T03:29:49.286Z,1.80
2022-11-22T03:32:19.186Z,1.70
2022-11-22T03:34:47.701Z,1.90
2022-11-22T03:37:16.618Z,1.97
2022-11-22T03:39:45.273Z,1.93
2022-11-22T03:42:21.015Z,1.90
2022-11-22T03:44:50.298Z,1.40
2022-11-22T03:47:21.554Z,2.47
2022-11-22T03:49:50.060Z,2.23
2022-11-22T03:52:21.198Z,2.50
2022-11-22T03:54:49.875Z,1.80
2022-11-22T03:57:18.730Z,1.63
2022-11-22T03:59:47.136Z,1.83
2022-11-22T04:02:17.557Z,1.93
2022-11-22T04:04:47.802Z,1.70
2022-11-22T04:07:18.704Z,1.80
2022-11-22T04:09:46.963Z,1.97
2022-11-22T04:12:16.441Z,1.80
2022-11-22T04:15:05.087Z,1.40
2022-11-22T04:17:45.277Z,1.80
2022-11-22T04:20:35.520Z,1.40
2022-11-22T04:23:12.876Z,1.63
2022-11-22T04:25:43.847Z,2.03
2022-11-22T04:28:13.007Z,1.57
2022-11-22T04:30:59.492Z,1.77
2022-11-22T04:33:27.945Z,1.97
2022-11-22T04:35:57.701Z,1.30
2022-11-22T04:38:26.828Z,2.10
2022-11-22T04:40:55.615Z,0.80
2022-11-22T04:43:43.198Z,1.10
2022-11-22T04:46:12.628Z,1.10
2022-11-22T04:48:42.051Z,1.17
2022-11-22T04:51:33.847Z,1.13
2022-11-22T04:54:02.581Z,2.30
2022-11-22T04:56:31.142Z,1.30
2022-11-22T04:59:01.070Z,1.40
2022-11-22T05:01:30.443Z,1.30
2022-11-22T05:03:58.737Z,1.10
2022-11-22T05:06:30.860Z,1.60
2022-11-22T05:08:59.330Z,1.40
2022-11-22T05:11:28.163Z,1.10
2022-11-22T05:14:00.285Z,1.60
2022-11-22T05:16:29.686Z,1.33
2022-11-22T05:19:00.498Z,1.40
2022-11-22T05:21:31.122Z,1.60
2022-11-22T05:23:58.510Z,1.27
2022-11-22T05:26:28.961Z,1.40
2022-11-22T05:28:59.434Z,1.57
2022-11-22T05:31:30.308Z,1.00
2022-11-22T05:33:59.266Z,1.20
2022-11-22T05:36:29.446Z,1.43
2022-11-22T05:38:58.505Z,1.40
2022-11-22T05:41:27.171Z,1.80
2022-11-22T05:43:57.202Z,1.40
2022-11-22T05:46:27.427Z,2.30
2022-11-22T05:48:58.280Z,1.93
2022-11-22T05:51:35.267Z,1.23
2022-11-22T05:54:05.165Z,1.90
2022-11-22T05:56:33.990Z,1.60
2022-11-22T05:59:02.225Z,1.33
2022-11-22T06:01:30.845Z,1.40
2022-11-22T06:03:59.900Z,3.17
2022-11-22T06:06:30.115Z,3.00
2022-11-22T06:09:00.268Z,2.20
2022-11-22T06:11:29.560Z,1.70
2022-11-22T06:13:59.609Z,1.40
2022-11-22T06:16:31.106Z,1.40
2022-11-22T06:18:59.922Z,2.10
2022-11-22T06:21:29.907Z,1.60
2022-11-22T06:23:58.233Z,1.40
2022-11-22T06:26:28.310Z,1.87
2022-11-22T06:28:57.684Z,1.57
2022-11-22T06:31:28.505Z,1.10
2022-11-22T06:34:08.494Z,1.60
2022-11-22T06:36:39.995Z,1.43
2022-11-22T06:39:08.662Z,1.50
2022-11-22T06:41:39.264Z,1.27
2022-11-22T06:44:10.433Z,1.10
2022-11-22T06:46:39.231Z,1.63
2022-11-22T06:49:07.628Z,1.87
2022-11-22T06:51:40.164Z,1.83
2022-11-22T06:54:11.759Z,2.23
2022-11-22T06:56:42.151Z,2.13
2022-11-22T06:59:11.034Z,2.53
2022-11-22T07:01:40.096Z,1.57
2022-11-22T07:04:09.931Z,1.80
2022-11-22T07:06:41.020Z,0.97
2022-11-22T07:09:11.637Z,1.50
2022-11-22T07:11:42.331Z,1.67
2022-11-22T07:14:11.233Z,1.90
2022-11-22T07:16:40.776Z,1.30
2022-11-22T07:19:11.738Z,1.23
2022-11-22T07:21:41.879Z,0.90
2022-11-22T07:24:11.278Z,1.40
2022-11-22T07:26:41.989Z,0.83
2022-11-22T07:29:11.177Z,2.53
2022-11-22T07:31:40.052Z,1.60
2022-11-22T07:34:11.615Z,1.83
2022-11-22T07:36:41.913Z,1.47
2022-11-22T07:39:10.421Z,1.30
2022-11-22T07:41:39.098Z,1.03
2022-11-22T07:44:07.499Z,1.27
2022-11-22T07:46:38.768Z,1.40
2022-11-22T07:49:08.441Z,1.07
2022-11-22T07:51:38.187Z,1.73
2022-11-22T07:54:09.586Z,1.40
2022-11-22T07:56:38.018Z,1.33
2022-11-22T07:59:06.527Z,1.00
2022-11-22T08:01:34.735Z,1.03
2022-11-22T08:04:03.660Z,1.73
2022-11-22T08:06:33.056Z,1.50
2022-11-22T08:09:02.492Z,1.93
2022-11-22T08:11:33.191Z,1.60
2022-11-22T08:14:01.707Z,1.70
2022-11-22T08:16:30.834Z,1.63
2022-11-22T08:19:00.121Z,1.40
2022-11-22T08:21:29.367Z,1.60
2022-11-22T08:24:00.196Z,1.47
2022-11-22T08:26:29.748Z,1.33
2022-11-22T08:29:03.052Z,1.73
2022-11-22T08:31:31.423Z,1.63
2022-11-22T08:34:00.658Z,0.83
2022-11-22T08:36:31.827Z,1.23
2022-11-22T08:39:04.751Z,1.60
2022-11-22T08:41:35.598Z,1.50
2022-11-22T08:44:08.870Z,1.30
2022-11-22T08:46:37.879Z,1.30
2022-11-22T08:49:08.712Z,1.23
2022-11-22T08:51:39.142Z,1.83
2022-11-22T08:54:10.302Z,1.47
2022-11-22T08:56:43.537Z,1.80
2022-11-22T08:59:15.073Z,1.87
2022-11-22T09:01:44.187Z,1.03
2022-11-22T09:04:13.594Z,1.03
2022-11-22T09:09:38.716Z,0.97
2022-11-22T09:12:08.362Z,1.03
2022-11-22T09:14:39.586Z,1.50
2022-11-22T09:17:16.124Z,1.30
2022-11-22T09:19:46.654Z,1.20
2022-11-22T09:22:17.013Z,0.90
2022-11-22T09:24:45.902Z,0.97
2022-11-22T09:27:15.301Z,1.13
2022-11-22T09:29:51.975Z,0.80
2022-11-22T09:32:21.495Z,1.10
2022-11-22T09:34:50.540Z,0.57
2022-11-22T09:37:20.169Z,0.93
2022-11-22T09:39:53.282Z,1.20
2022-11-22T09:42:38.295Z,0.93
2022-11-22T09:45:35.211Z,1.00
2022-11-22T09:48:19.748Z,0.83
2022-11-22T09:50:59.379Z,0.70
2022-11-22T09:53:36.804Z,0.77
2022-11-22T09:56:17.209Z,0.80
2022-11-22T09:58:54.974Z,0.87
2022-11-22T10:01:31.728Z,0.90
2022-11-22T10:04:06.679Z,0.90
2022-11-22T10:06:39.025Z,0.67
2022-11-22T10:09:22.122Z,0.80
2022-11-22T10:11:56.139Z,0.70
2022-11-22T10:14:40.023Z,0.73
2022-11-22T10:17:22.289Z,0.80
2022-11-22T10:19:59.472Z,0.77
2022-11-22T10:22:31.265Z,0.60
2022-11-22T10:25:03.844Z,0.90
2022-11-22T10:27:34.832Z,0.80
2022-11-22T10:30:06.798Z,1.10
2022-11-22T10:32:43.175Z,0.83
2022-11-22T10:35:34.108Z,0.70
2022-11-22T10:38:33.055Z,0.67
2022-11-22T10:41:12.337Z,0.93
2022-11-22T10:43:55.335Z,0.90
2022-11-22T10:46:35.635Z,1.23
2022-11-22T10:49:18.582Z,0.73
2022-11-22T10:51:54.808Z,0.50
2022-11-22T10:54:30.202Z,0.53
2022-11-22T10:57:08.646Z,0.80
2022-11-22T10:59:55.937Z,0.83
2022-11-22T11:02:58.180Z,0.97
2022-11-22T11:05:37.321Z,0.50
2022-11-22T11:08:36.770Z,1.30
2022-11-22T11:10:58.146Z,0.90
2022-11-22T11:13:32.538Z,0.60
2022-11-22T11:16:04.753Z,0.90
2022-11-22T11:18:41.727Z,0.90
2022-11-22T11:21:16.258Z,0.60
2022-11-22T11:23:47.007Z,0.60
2022-11-22T11:26:27.980Z,0.90
2022-11-22T11:29:37.659Z,0.90
2022-11-22T11:32:14.555Z,0.70
2022-11-22T11:34:50.913Z,0.83
2022-11-22T11:37:39.172Z,0.70
2022-11-22T11:40:29.841Z,0.70
2022-11-22T11:43:19.998Z,0.90
2022-11-22T11:45:50.521Z,0.50
2022-11-22T11:48:38.324Z,0.50
2022-11-22T11:51:17.861Z,0.60
2022-11-22T11:53:58.276Z,0.50
2022-11-22T11:56:41.191Z,0.60
2022-11-22T11:59:18.914Z,0.60
2022-11-22T12:01:56.636Z,0.50
2022-11-22T12:04:31.151Z,0.50
2022-11-22T12:07:05.176Z,0.50
2022-11-22T12:09:45.551Z,0.80
2022-11-22T12:12:35.658Z,0.60
2022-11-22T12:15:13.309Z,0.50
2022-11-22T12:17:55.350Z,0.60
2022-11-22T12:20:35.311Z,0.50
2022-11-22T12:23:20.702Z,0.60
2022-11-22T12:25:59.632Z,0.50
2022-11-22T12:28:32.747Z,0.60
2022-11-22T12:31:11.996Z,0.70
2022-11-22T12:33:47.070Z,0.90
2022-11-22T12:36:31.206Z,0.50
2022-11-22T12:39:04.925Z,0.70
2022-11-22T12:41:41.566Z,0.50
2022-11-22T12:44:16.980Z,0.53
2022-11-22T12:46:51.918Z,0.50
2022-11-22T12:49:41.053Z,0.73
2022-11-22T12:52:25.210Z,0.50
2022-11-22T12:55:05.004Z,0.63
2022-11-22T12:57:45.507Z,0.50
2022-11-22T13:00:18.100Z,0.57
2022-11-22T13:03:02.799Z,0.50
2022-11-22T13:05:43.422Z,0.60
2022-11-22T13:08:20.677Z,0.70
2022-11-22T13:10:53.658Z,0.70
2022-11-22T13:13:30.421Z,0.60
2022-11-22T13:16:07.454Z,0.77
2022-11-22T13:18:44.621Z,0.70
2022-11-22T13:21:23.788Z,0.70
2022-11-22T13:24:17.785Z,1.00
2022-11-22T13:27:03.943Z,0.60
2022-11-22T13:29:37.774Z,0.50
2022-11-22T13:32:20.746Z,0.60
2022-11-22T13:35:14.951Z,0.70
2022-11-22T13:37:48.463Z,0.70
2022-11-22T13:40:28.677Z,0.50
2022-11-22T13:43:51.921Z,0.70
2022-11-22T13:47:01.365Z,0.57
2022-11-22T13:49:48.286Z,1.50
2022-11-22T13:52:58.394Z,0.63
2022-11-22T13:55:41.835Z,1.60
2022-11-22T13:58:57.375Z,0.70
2022-11-22T14:02:09.166Z,0.63
2022-11-22T14:04:45.052Z,0.80
2022-11-22T14:07:40.900Z,0.73
2022-11-22T14:10:39.958Z,0.60
2022-11-22T14:13:36.559Z,0.60
2022-11-22T14:16:36.020Z,0.70
2022-11-22T14:19:25.368Z,0.50
2022-11-22T14:22:21.470Z,0.70
2022-11-22T14:25:23.633Z,0.50
2022-11-22T14:28:04.736Z,0.60
2022-11-22T14:30:49.008Z,0.63
2022-11-22T14:33:20.755Z,0.60
2022-11-22T14:36:21.275Z,0.70
2022-11-22T14:39:00.993Z,0.60
2022-11-22T14:41:46.846Z,0.60
2022-11-22T14:44:25.199Z,0.60
2022-11-22T14:47:14.257Z,0.70
2022-11-22T14:49:48.692Z,0.40
2022-11-22T14:52:26.026Z,0.50
2022-11-22T14:55:06.386Z,0.77
2022-11-22T14:57:42.139Z,0.60
2022-11-22T15:00:22.534Z,0.70
2022-11-22T15:03:19.990Z,0.80
2022-11-22T15:09:15.081Z,0.57
2022-11-22T15:09:46.631Z,0.80
2022-11-22T15:12:24.491Z,0.90
2022-11-22T15:58:00.523Z,1.10
2022-11-22T16:00:38.553Z,1.20
2022-11-22T16:03:25.947Z,0.87
2022-11-22T16:06:12.812Z,1.10
2022-11-22T16:09:02.401Z,0.93
2022-11-22T16:11:48.210Z,1.40
2022-11-22T16:14:53.216Z,1.23
2022-11-22T16:17:40.451Z,1.23
2022-11-22T16:20:35.372Z,1.73
2022-11-22T16:23:30.152Z,2.53
2022-11-22T16:26:16.775Z,1.00
2022-11-22T16:28:52.093Z,1.40
2022-11-22T16:31:25.530Z,1.73
2022-11-22T16:33:59.333Z,1.10
2022-11-22T16:36:31.862Z,1.43
2022-11-22T16:39:07.739Z,1.33
2022-11-22T16:41:38.963Z,1.27
2022-11-22T16:44:19.290Z,2.10
2022-11-22T16:46:49.475Z,1.83
2022-11-22T16:49:21.431Z,2.23
2022-11-22T16:51:51.710Z,1.63
2022-11-22T16:54:23.866Z,1.93
2022-11-22T16:56:58.661Z,2.50
2022-11-22T16:59:34.373Z,2.10
2022-11-22T17:02:06.065Z,1.30
2022-11-22T17:04:40.855Z,2.70
2022-11-22T17:07:12.364Z,1.47
2022-11-22T17:09:45.182Z,1.40
2022-11-22T17:12:15.557Z,1.70
2022-11-22T17:14:48.771Z,1.77
2022-11-22T17:17:17.285Z,2.17
2022-11-22T17:19:53.127Z,1.40
2022-11-22T17:22:23.795Z,1.90
2022-11-22T17:24:53.869Z,1.60
2022-11-22T17:27:22.614Z,1.60
2022-11-22T17:29:52.710Z,1.60
2022-11-22T17:32:20.998Z,1.40
2022-11-22T17:34:50.030Z,1.80
2022-11-22T17:37:20.727Z,1.70
2022-11-22T17:39:52.983Z,1.80
2022-11-22T17:42:24.108Z,2.37
2022-11-22T17:44:59.481Z,1.80
2022-11-22T17:47:28.192Z,1.43
2022-11-22T17:49:57.302Z,2.77
2022-11-22T17:52:28.166Z,1.57
2022-11-22T17:55:03.613Z,1.97
2022-11-22T17:57:34.127Z,1.83
2022-11-22T18:00:07.150Z,2.17
2022-11-22T18:02:36.820Z,1.60
2022-11-22T18:05:08.533Z,1.63
2022-11-22T18:07:42.446Z,1.20
2022-11-22T18:10:14.426Z,1.77
2022-11-22T18:13:19.618Z,1.50
2022-11-22T18:15:46.488Z,2.50
2022-11-22T18:18:40.333Z,1.43
2022-11-22T18:21:06.763Z,1.40
2022-11-22T18:23:39.094Z,2.27
2022-11-22T18:26:38.354Z,1.70
2022-11-22T18:29:35.641Z,1.73
2022-11-22T18:31:56.412Z,1.63
2022-11-22T18:34:27.307Z,1.43
2022-11-22T18:37:03.821Z,2.13
2022-11-22T18:39:38.334Z,2.27
2022-11-22T18:42:10.170Z,1.57
2022-11-22T18:44:41.177Z,1.80
2022-11-22T18:47:11.301Z,1.80
2022-11-22T18:49:41.654Z,1.93
2022-11-22T18:52:14.839Z,1.00
2022-11-22T18:54:45.283Z,2.00
2022-11-22T18:57:13.851Z,1.37
2022-11-22T18:59:42.689Z,1.60
2022-11-22T19:02:13.054Z,1.47
2022-11-22T19:04:42.696Z,2.17
2022-11-22T19:07:11.852Z,1.80
2022-11-22T19:09:44.842Z,1.20
2022-11-22T19:12:14.943Z,2.10
2022-11-22T19:14:47.139Z,1.93
2022-11-22T19:17:21.984Z,2.17
2022-11-22T19:19:56.960Z,1.20
2022-11-22T19:22:26.318Z,1.60
2022-11-22T19:24:55.328Z,1.30
2022-11-22T19:27:25.240Z,1.53
2022-11-22T19:29:54.899Z,1.70
2022-11-22T19:32:31.207Z,1.70
2022-11-22T19:35:00.514Z,1.73
2022-11-22T19:37:29.196Z,1.83
2022-11-22T19:39:57.780Z,1.40
2022-11-22T19:42:27.123Z,2.00
2022-11-22T19:44:55.633Z,1.77
2022-11-22T19:47:26.714Z,1.40
2022-11-22T19:49:55.357Z,2.23
2022-11-22T19:52:25.512Z,1.70
2022-11-22T19:54:53.960Z,1.50
2022-11-22T19:57:23.780Z,1.57
2022-11-22T19:59:58.600Z,1.80
2022-11-22T20:02:30.783Z,1.80
2022-11-22T20:04:59.645Z,1.70
2022-11-22T20:07:32.511Z,1.90
2022-11-22T20:10:04.453Z,1.30
2022-11-22T20:12:36.850Z,1.43
2022-11-22T20:15:08.846Z,1.77
2022-11-22T20:17:40.801Z,1.57
2022-11-22T20:20:10.621Z,2.27
2022-11-22T20:22:40.777Z,2.20
2022-11-22T20:25:10.135Z,1.80
2022-11-22T20:27:40.680Z,1.83
2022-11-22T20:30:11.427Z,1.23
2022-11-22T20:32:48.451Z,1.77
2022-11-22T20:35:20.463Z,2.23
2022-11-22T20:37:53.656Z,2.50
2022-11-22T20:40:25.788Z,2.20
2022-11-22T20:42:54.291Z,1.57
2022-11-22T20:45:23.488Z,2.00
2022-11-22T20:47:53.854Z,1.60
2022-11-22T20:50:24.073Z,1.40
2022-11-22T20:52:54.977Z,1.70
2022-11-22T20:55:29.723Z,1.50
2022-11-22T20:58:00.858Z,1.70
2022-11-22T21:00:31.293Z,1.70
2022-11-22T21:03:05.863Z,1.70
2022-11-22T21:05:34.891Z,1.47
2022-11-22T21:08:05.455Z,1.80
2022-11-22T21:10:36.431Z,1.70
2022-11-22T21:13:06.143Z,1.93
2022-11-22T21:15:37.425Z,1.43
2022-11-22T21:18:25.214Z,1.13
2022-11-22T21:20:56.601Z,1.57
2022-11-22T21:23:26.113Z,1.40
2022-11-22T21:25:54.675Z,1.70
2022-11-22T21:28:23.102Z,1.60
2022-11-22T21:30:55.315Z,1.43
2022-11-22T21:33:26.848Z,1.80
2022-11-22T21:35:55.399Z,1.10
2022-11-22T21:38:29.665Z,1.97
2022-11-22T21:41:17.198Z,1.10
2022-11-22T21:43:51.099Z,1.80
2022-11-22T21:46:20.506Z,1.10
2022-11-22T21:48:51.985Z,2.10
2022-11-22T21:51:24.265Z,1.30
2022-11-22T21:53:57.605Z,1.40
2022-11-22T21:56:27.136Z,1.60
2022-11-22T21:58:56.067Z,1.50
2022-11-22T22:01:25.821Z,1.10
2022-11-22T22:03:55.949Z,1.27
2022-11-22T22:06:25.231Z,1.00
2022-11-22T22:08:55.414Z,1.40
2022-11-22T22:11:25.794Z,1.93
2022-11-22T22:13:58.350Z,1.47
2022-11-22T22:16:28.180Z,1.73
2022-11-22T22:19:01.326Z,1.83
2022-11-22T22:21:31.693Z,1.27
2022-11-22T22:24:02.310Z,1.30
2022-11-22T22:26:32.758Z,1.53
2022-11-22T22:29:01.578Z,1.20
2022-11-22T22:31:31.215Z,1.97
2022-11-22T22:34:01.233Z,1.40
2022-11-22T22:36:29.934Z,2.00
2022-11-22T22:38:58.643Z,1.20
2022-11-22T22:41:27.512Z,1.40
2022-11-22T22:43:56.624Z,0.93
2022-11-22T22:46:27.361Z,1.90
2022-11-22T22:48:56.776Z,1.57
2022-11-22T22:51:32.782Z,1.67
2022-11-22T22:54:02.336Z,1.30
2022-11-22T22:56:32.628Z,1.40
2022-11-22T22:59:01.759Z,1.70
2022-11-22T23:01:31.976Z,1.30
2022-11-22T23:04:02.192Z,1.70
2022-11-22T23:06:34.747Z,1.67
2022-11-22T23:09:03.732Z,1.70
2022-11-22T23:11:51.097Z,1.33
2022-11-22T23:14:23.757Z,1.80
2022-11-22T23:16:57.317Z,1.27
2022-11-22T23:19:27.312Z,1.23
2022-11-22T23:21:58.055Z,1.60
2022-11-22T23:24:26.551Z,1.03
2022-11-22T23:26:55.734Z,1.67
2022-11-22T23:29:30.410Z,1.40
2022-11-22T23:31:58.815Z,2.23
2022-11-22T23:34:27.808Z,1.43
2022-11-22T23:36:58.250Z,1.53
2022-11-22T23:39:28.985Z,1.67
2022-11-22T23:41:57.561Z,1.37
2022-11-22T23:44:26.207Z,1.43
2022-11-22T23:46:55.009Z,1.70
2022-11-22T23:49:23.671Z,1.47
2022-11-22T23:51:52.222Z,1.90
2022-11-22T23:54:22.953Z,1.60
2022-11-22T23:56:52.896Z,1.90
2022-11-22T23:59:21.734Z,1.87
